메인 페이지
METAR-TAF:

METAR-TAF

공항 :

Eau Claire, 위스콘신, 미국

위도: 44-51-55N, 경도: 091-29-06W, 고도: 277m

현재 날씨관측

예보는 55분 전, 15:56시(UTC)에 발표되었습니다.
여러 방향의 바람 6kt
온도 7°C
습도 36%
기압 1022 hPa
시정: 16.1km
맑음

METAR: KEAU 051556Z VRB06KT 10SM CLR 07/M07 A3017 RMK AO2 SLP227 T00721067

시각: 11:51 (16:51 UTC)

예보

예보는 5 시간 31분 전, 11:20시(UTC)에 발표되었습니다.
예보 대상 시간: 05일 12시부터 06일 12시까지 (UTC)
여러 방향의 바람 2kt
시정: 10km
고도 25000ft 상공 구름 조금
05일 1600시부터 (UTC)
8kt
시정: 10km
고도 25000ft 상공 구름 조금
06일 0100시부터 (UTC)
남동3kt
시정: 10km
고도 10000ft 상공 구름 보통

TAF: KEAU 051120Z 0512/0612 VRB02KT P6SM FEW250 FM051600 18008KT P6SM FEW250 FM060100 13003KT P6SM SCT100

4,000개 이상의 공항 관측 자료 및 예보 (METAR 및 TAF 보고).

지도상에서 검색 가능한 기상관측소가 노란 점과 빨간 점으로 표시되어 있습니다.

기상관측소 명을 보려면 표시 위로 마우스를 이동하세요.

날씨 관측과 예보를 보려면 클릭하세요.

지도 변경 : 확대하려면 엑스 표시가 있는 녹색 버튼, 축소하려면 빼기 표시가 있는 녹색 버튼, 다음 페이지의 지도를 보려면 녹색 화살표를 클릭하세요.


METAR-TAF: